Portada
METAR-TAF:

METAR-TAF

Aeroports :

Ivano-Frankivsk, Ucraïna

latitud: 48-53-03N, longitud: 024-41-10E, altitud: 280 m

Observació

L'informe es va fer fa 7 hores i 45 minuts, a les 18:00 UTC
Vent 6 kt del Oest
Temperatura 10°C
Humitat 93%
Pressió 1024 hPa
Visibilitat 10 km o més
Núvols disperses a una alçada de 2000 ft, Cumulonimbus.
Cel ennuvolat a una alçada de 2600 ft

METAR: UKLI 271800Z 27003MPS 9999 SCT020CB BKN026 10/09 Q1024 NOSIG

Hora: 04:45 (01:45 UTC)

Pronòstic

L'informe es va fer fa 11 hores i 44 minuts, a les 14:01 UTC
Pronòstic vàlid del 27 a les 15 UTC al 27 a les 24 UTC
Vent 6 kt del Oest
Visibilitat 10 km o més
Cel ennuvolat a una alçada de 2000 ft
Temporalment
l' 27 a les 15 UTC al 27 a les 21 UTC
Visibilitat: 2100 m
Cel ennuvolat a una alçada de 700 ft
Cel ennuvolat a una alçada de 1000 ft, Cumulonimbus.
tempesta, pluja

TAF: UKLI 271401Z 2715/2724 28003MPS 9999 BKN020 TEMPO 2715/2721 2100 -TSRA BKN007 BKN010CB

Observacions i pronòstics meteorològics de més de 4000 aeroports (METAR i TAF).

Les estacions disponibles són els punts grocs i vermells al mapa.

Posi el ratolí al punt desitjat per veure el nom de l'estació.

Feu clic per veure les observacions i els pronòstics meteorològics.

Per canviar el mapa: feu clic els botons verds amb una creu de color negre per apropar; al botó verd amb un guió per allunyar la imatge; o en les fletxes verdes per a mapes adjacents.


METAR-TAF: